Time;durP1;ratioP1;P1;durP2;ratioP2;P2;SDS_P1;SDS_P2;PMS_P1;PMS_P2;Temp;Humidity;BMP_temperature;BMP_pressure;BME280_temperature;BME280_humidity;BME280_pressure;Samples;Min_cycle;Max_cycle;Signal;HPM_P1;HPM_P2
2023/01/18 00:00:09;;;;;;;15.80;9.32;;;;;;;3.58;54.11;98996.22;6181410;23;20013;-65
2023/01/18 00:02:36;;;;;;;14.60;9.82;;;;;;;3.59;54.05;99011.19;6181078;23;20074;-66
2023/01/18 00:05:03;;;;;;;17.33;9.52;;;;;;;3.59;54.02;99005.88;6181598;23;20024;-66
2023/01/18 00:07:30;;;;;;;18.02;9.07;;;;;;;3.58;54.05;99004.19;6181873;23;20070;-66
2023/01/18 00:09:56;;;;;;;17.60;9.98;;;;;;;3.59;54.07;99005.03;6181437;23;20013;-66
2023/01/18 00:12:23;;;;;;;15.13;10.02;;;;;;;3.58;53.95;99001.53;6181098;23;20017;-66
2023/01/18 00:14:49;;;;;;;18.02;9.65;;;;;;;3.59;54.18;99005.03;6181679;23;20017;-67
2023/01/18 00:17:16;;;;;;;13.68;9.48;;;;;;;3.61;54.17;99014.59;6154893;23;20021;-66
2023/01/18 00:19:42;;;;;;;13.38;8.38;;;;;;;3.63;53.99;99011.81;6181294;23;20021;-66
2023/01/18 00:22:09;;;;;;;15.38;8.77;;;;;;;3.62;54.03;99010.13;6181205;23;20070;-66
2023/01/18 00:24:35;;;;;;;14.52;8.95;;;;;;;3.58;53.94;99016.59;6181428;23;20448;-66
2023/01/18 00:27:02;;;;;;;13.07;9.07;;;;;;;3.55;54.01;99012.38;6181418;23;20020;-66
2023/01/18 00:29:29;;;;;;;15.90;9.23;;;;;;;3.54;53.95;99015.13;6181676;23;20082;-66
2023/01/18 00:31:56;;;;;;;14.55;9.05;;;;;;;3.53;53.92;99011.63;6181305;23;20017;-66
2023/01/18 00:34:23;;;;;;;17.10;9.00;;;;;;;3.53;53.95;99008.97;6181636;23;20010;-66
2023/01/18 00:36:49;;;;;;;14.68;9.30;;;;;;;3.53;54.02;99019.59;6181743;23;20021;-66
2023/01/18 00:39:16;;;;;;;20.08;10.43;;;;;;;3.49;54.04;99012.81;6181281;23;20443;-67
2023/01/18 00:43:37;;;;;;;12.07;8.50;;;;;;;3.44;53.95;99018.44;6180894;22;20352;-67
2023/01/18 00:44:29;;;;;;;15.10;8.85;;;;;;;3.40;53.97;99019.63;6154868;23;20355;-65
2023/01/18 00:46:55;;;;;;;15.45;8.32;;;;;;;3.37;53.96;99019.84;6181037;23;20020;-66
2023/01/18 00:49:22;;;;;;;12.32;8.13;;;;;;;3.33;53.94;99020.16;6180861;23;20017;-66
2023/01/18 00:51:51;;;;;;;17.40;8.70;;;;;;;3.27;53.85;99023.25;6181612;23;20066;-66
2023/01/18 00:54:17;;;;;;;17.60;8.73;;;;;;;3.22;53.67;99028.03;6182704;23;20090;-66
2023/01/18 00:56:44;;;;;;;13.68;9.32;;;;;;;3.21;53.76;99027.19;6182602;23;20082;-67
2023/01/18 00:59:11;;;;;;;14.35;8.73;;;;;;;3.20;53.93;99028.13;6182288;23;20021;-66
2023/01/18 01:01:37;;;;;;;15.65;9.55;;;;;;;3.19;53.87;99029.09;6156613;22;20017;-66
2023/01/18 01:06:50;;;;;;;12.20;8.68;;;;;;;3.12;53.81;99026.00;6182939;23;20042;-66
2023/01/18 01:09:26;;;;;;;14.10;9.27;;;;;;;3.09;53.82;99031.53;6182733;23;20013;-66
2023/01/18 01:26:09;;;;;;;19.33;8.15;;;;;;;2.88;53.71;99036.47;6182132;23;20503;-65
2023/01/18 01:28:38;;;;;;;15.98;8.75;;;;;;;2.85;53.77;99036.69;6182874;23;20025;-66
2023/01/18 01:31:07;;;;;;;13.30;8.65;;;;;;;2.82;53.75;99034.25;6182261;23;20321;-67
2023/01/18 01:33:35;;;;;;;12.30;8.63;;;;;;;2.79;53.79;99042.41;6182134;23;20088;-66
2023/01/18 01:36:05;;;;;;;12.18;8.27;;;;;;;2.76;53.82;99039.13;6182435;22;20017;-67
2023/01/18 01:38:32;;;;;;;15.10;8.95;;;;;;;2.73;53.76;99042.81;6182327;23;20397;-67
2023/01/18 01:41:03;;;;;;;15.98;9.32;;;;;;;2.71;53.83;99044.72;6182226;23;20021;-65
2023/01/18 01:43:48;;;;;;;12.85;9.80;;;;;;;2.68;53.71;99042.28;6182564;23;20018;-66
2023/01/18 01:46:56;;;;;;;15.93;8.80;;;;;;;2.67;53.70;99050.34;6182673;23;20531;-65
2023/01/18 01:49:30;;;;;;;17.67;10.18;;;;;;;2.70;53.89;99060.75;6132936;23;20345;-66
2023/01/18 01:52:09;;;;;;;16.42;9.60;;;;;;;2.69;53.85;99067.84;6182390;23;20066;-65
2023/01/18 01:54:42;;;;;;;14.07;8.93;;;;;;;2.71;53.99;99065.09;6182658;23;20027;-66
2023/01/18 01:57:16;;;;;;;14.20;8.98;;;;;;;2.70;53.84;99055.44;6156009;23;20014;-65
2023/01/18 01:59:48;;;;;;;13.82;9.38;;;;;;;2.68;53.95;99063.50;6182642;23;20410;-66
2023/01/18 02:02:15;;;;;;;16.63;9.82;;;;;;;2.66;53.87;99062.75;6182042;23;20071;-66
2023/01/18 02:04:44;;;;;;;15.73;9.65;;;;;;;2.66;53.84;99064.53;6182574;23;20082;-65
2023/01/18 02:07:11;;;;;;;14.55;9.43;;;;;;;2.65;53.91;99060.19;6182274;23;20013;-65
2023/01/18 02:09:38;;;;;;;14.23;9.32;;;;;;;2.64;53.84;99055.84;6182415;23;20013;-65
2023/01/18 02:12:04;;;;;;;16.45;10.40;;;;;;;2.61;53.98;99058.69;6181856;23;20025;-66
2023/01/18 02:14:31;;;;;;;16.58;9.68;;;;;;;2.56;53.91;99061.66;6182937;23;20013;-65
2023/01/18 02:17:04;;;;;;;17.50;9.82;;;;;;;2.50;53.81;99068.22;6188411;23;20095;-65
2023/01/18 02:19:55;;;;;;;13.90;9.73;;;;;;;2.45;53.92;99064.19;6182441;23;20041;-66
2023/01/18 02:22:46;;;;;;;13.23;8.90;;;;;;;2.41;54.00;99067.97;6181803;23;20048;-66
2023/01/18 02:25:27;;;;;;;13.63;9.07;;;;;;;2.41;53.98;99071.47;6182001;23;20351;-66
2023/01/18 02:28:29;;;;;;;16.10;8.85;;;;;;;2.40;54.06;99067.13;6181980;23;20095;-67
2023/01/18 02:31:11;;;;;;;17.33;10.07;;;;;;;2.39;53.98;99073.38;6182103;23;20025;-66
2023/01/18 02:34:15;;;;;;;15.10;9.45;;;;;;;2.33;54.03;99070.28;6155939;23;20321;-66
2023/01/18 02:37:06;;;;;;;14.20;9.30;;;;;;;2.29;54.10;99085.53;6181719;23;20013;-65
2023/01/18 02:39:42;;;;;;;13.45;8.73;;;;;;;2.30;54.17;99078.44;6181946;23;20040;-67
2023/01/18 02:47:59;;;;;;;13.93;8.77;;;;;;;2.37;54.27;99085.88;6181861;23;20017;-65
2023/01/18 02:50:26;;;;;;;13.75;9.13;;;;;;;2.37;53.97;99093.81;6181849;23;20078;-65
2023/01/18 02:52:53;;;;;;;13.88;8.57;;;;;;;2.39;54.28;99085.78;6181827;23;20021;-66
2023/01/18 02:55:42;;;;;;;15.45;9.95;;;;;;;2.38;54.21;99084.94;6182084;23;20088;-66
2023/01/18 02:58:44;;;;;;;15.45;9.45;;;;;;;2.35;54.08;99082.47;6182158;23;20017;-66
2023/01/18 03:01:21;;;;;;;11.63;8.55;;;;;;;2.35;54.13;99084.28;6182813;23;20374;-65
2023/01/18 03:03:49;;;;;;;13.13;9.07;;;;;;;2.36;54.18;99092.13;6181707;23;20041;-65
2023/01/18 03:06:19;;;;;;;13.95;9.10;;;;;;;2.38;54.11;99099.97;6182571;23;20067;-65
2023/01/18 03:08:50;;;;;;;15.70;9.07;;;;;;;2.40;54.25;99100.72;6181751;23;20448;-65
2023/01/18 03:11:32;;;;;;;15.55;8.77;;;;;;;2.41;54.19;99097.97;6182171;23;20059;-65
2023/01/18 03:14:20;;;;;;;12.45;8.35;;;;;;;2.42;54.10;99099.66;6181222;23;20023;-65
2023/01/18 03:17:02;;;;;;;13.95;8.98;;;;;;;2.41;54.05;99092.69;6182629;23;20020;-65
2023/01/18 03:23:36;;;;;;;19.83;10.18;;;;;;;2.29;53.89;99101.41;6181889;23;20017;-65
2023/01/18 03:25:17;;;;;;;13.48;8.75;;;;;;;2.20;53.87;99097.53;6181827;22;20067;-65
2023/01/18 03:36:23;;;;;;;12.98;9.02;;;;;;;1.94;54.07;99110.75;6181793;23;20116;-65
2023/01/18 03:38:59;;;;;;;12.45;8.70;;;;;;;1.95;54.08;99109.81;6181998;23;20039;-64
2023/01/18 03:41:30;;;;;;;21.33;9.55;;;;;;;1.96;54.24;99115.00;6182446;23;20096;-65
2023/01/18 03:44:02;;;;;;;12.60;8.75;;;;;;;1.98;54.18;99121.06;6181522;23;20340;-65
2023/01/18 03:46:31;;;;;;;15.85;8.88;;;;;;;1.99;54.27;99122.75;6181658;23;20092;-65
2023/01/18 03:48:58;;;;;;;11.75;8.02;;;;;;;2.00;54.21;99120.94;6181708;23;20023;-65
2023/01/18 03:51:37;;;;;;;15.13;8.57;;;;;;;2.01;54.23;99120.00;6181566;23;20021;-65
2023/01/18 03:54:18;;;;;;;12.77;8.55;;;;;;;2.02;54.14;99132.28;6182056;23;20082;-65
2023/01/18 03:56:52;;;;;;;16.10;8.82;;;;;;;2.03;54.26;99131.34;6181736;23;20411;-65
2023/01/18 03:59:20;;;;;;;16.33;9.60;;;;;;;2.03;54.27;99128.69;6181933;22;20063;-65
2023/01/18 04:01:47;;;;;;;15.50;8.95;;;;;;;2.05;54.30;99134.75;6181497;23;20046;-66
2023/01/18 04:04:14;;;;;;;14.38;8.85;;;;;;;2.03;54.13;99131.34;6182244;23;20021;-65
2023/01/18 04:06:41;;;;;;;13.60;9.00;;;;;;;2.02;54.09;99133.16;6181460;23;20399;-66
2023/01/18 04:09:07;;;;;;;11.73;8.35;;;;;;;2.00;54.07;99140.34;6181528;23;20013;-66
2023/01/18 04:11:34;;;;;;;14.48;8.77;;;;;;;1.99;54.10;99140.44;6181960;23;20043;-66
2023/01/18 04:14:01;;;;;;;10.82;8.18;;;;;;;1.94;54.04;99148.66;6181615;23;20088;-65
2023/01/18 04:16:27;;;;;;;15.02;9.05;;;;;;;1.89;54.03;99146.31;6181493;23;20040;-65
2023/01/18 04:18:54;;;;;;;13.57;8.70;;;;;;;1.89;54.22;99151.59;6181771;23;20013;-67
2023/01/18 04:21:20;;;;;;;18.85;8.38;;;;;;;1.87;54.25;99140.25;6181763;23;20013;-65
2023/01/18 04:23:47;;;;;;;13.88;8.70;;;;;;;1.88;54.14;99149.91;6181598;23;20017;-65
2023/01/18 04:26:15;;;;;;;11.40;8.68;;;;;;;1.87;54.30;99150.00;6181322;23;20009;-65
2023/01/18 04:28:42;;;;;;;13.52;8.18;;;;;;;1.87;54.22;99155.28;6182060;23;20092;-65
2023/01/18 04:31:08;;;;;;;12.52;8.27;;;;;;;1.85;54.15;99152.75;6155317;23;20436;-66
2023/01/18 04:33:35;;;;;;;14.48;8.52;;;;;;;1.83;54.31;99146.69;6181180;23;20039;-65
2023/01/18 04:36:02;;;;;;;14.32;8.73;;;;;;;1.82;54.10;99157.38;6181702;23;20017;-66
2023/01/18 04:38:28;;;;;;;15.70;8.27;;;;;;;1.80;54.30;99159.25;6181178;22;20017;-65
2023/01/18 04:40:55;;;;;;;18.52;9.55;;;;;;;1.81;54.29;99159.16;6181556;23;20396;-65
2023/01/18 04:43:21;;;;;;;14.10;8.80;;;;;;;1.83;54.32;99159.91;6181458;23;20021;-66
2023/01/18 04:45:53;;;;;;;14.73;8.15;;;;;;;1.86;54.32;99158.88;6181417;23;20024;-65
2023/01/18 04:48:20;;;;;;;12.85;8.43;;;;;;;1.86;54.25;99154.44;6181513;23;20015;-66
2023/01/18 04:50:47;;;;;;;15.23;8.48;;;;;;;1.89;54.30;99161.34;6181685;22;20021;-66
2023/01/18 04:53:15;;;;;;;14.13;8.30;;;;;;;1.89;54.47;99164.84;6180902;23;20021;-66
2023/01/18 04:55:42;;;;;;;16.40;8.77;;;;;;;1.89;54.40;99162.19;6181133;23;20089;-65
2023/01/18 04:58:09;;;;;;;14.45;8.63;;;;;;;1.91;54.47;99172.69;6181218;23;20013;-65
2023/01/18 05:00:38;;;;;;;12.18;8.52;;;;;;;1.92;54.21;99171.72;6181191;23;20022;-65
2023/01/18 05:03:09;;;;;;;17.50;8.45;;;;;;;1.91;54.24;99170.88;6181357;23;20037;-65
2023/01/18 05:05:36;;;;;;;12.25;8.35;;;;;;;1.94;54.49;99179.56;6181479;23;20070;-65
2023/01/18 05:08:03;;;;;;;13.23;8.40;;;;;;;1.94;54.42;99182.22;6181143;23;20088;-65
2023/01/18 05:10:29;;;;;;;13.40;7.95;;;;;;;1.94;54.23;99184.88;6181471;23;20397;-65
2023/01/18 05:12:56;;;;;;;13.45;8.27;;;;;;;1.90;54.42;99195.66;6181286;22;20021;-65
2023/01/18 05:15:23;;;;;;;11.18;8.18;;;;;;;1.88;54.27;99197.53;6180939;23;20432;-65
2023/01/18 05:17:50;;;;;;;14.85;7.75;;;;;;;1.84;54.26;99196.03;6180983;23;20452;-65
2023/01/18 05:20:16;;;;;;;17.75;8.15;;;;;;;1.80;54.30;99197.16;6180823;23;20021;-65
2023/01/18 05:22:43;;;;;;;13.40;8.60;;;;;;;1.76;54.33;99200.94;6181001;23;20029;-66
2023/01/18 05:25:10;;;;;;;10.60;7.60;;;;;;;1.73;54.28;99206.44;6180918;23;20043;-65
2023/01/18 05:27:36;;;;;;;13.02;7.80;;;;;;;1.72;54.37;99201.22;6181428;22;20044;-65
2023/01/18 05:30:03;;;;;;;16.20;8.18;;;;;;;1.74;54.46;99202.84;6182083;22;20017;-65
2023/01/18 05:32:32;;;;;;;19.05;8.30;;;;;;;1.77;54.34;99207.09;6180649;23;20021;-65
2023/01/18 05:34:58;;;;;;;13.82;8.60;;;;;;;1.75;54.32;99204.53;6181184;23;20317;-65
2023/01/18 05:37:25;;;;;;;12.98;8.18;;;;;;;1.70;54.35;99214.56;6181748;23;20100;-65
2023/01/18 05:39:52;;;;;;;13.07;7.93;;;;;;;1.65;54.36;99221.91;6182533;23;20020;-65
2023/01/18 05:42:18;;;;;;;16.33;8.30;;;;;;;1.59;54.34;99222.28;6182192;23;20023;-64
2023/01/18 05:44:45;;;;;;;12.63;7.82;;;;;;;1.53;54.28;99227.94;6182196;23;20070;-65
2023/01/18 05:47:11;;;;;;;13.18;8.68;;;;;;;1.49;54.49;99229.06;6182112;23;20018;-65
2023/01/18 05:49:38;;;;;;;12.50;8.20;;;;;;;1.50;54.42;99234.28;6182203;23;20439;-65
2023/01/18 05:52:07;;;;;;;28.73;8.23;;;;;;;1.52;54.46;99242.13;6181802;23;20436;-65
2023/01/18 05:54:34;;;;;;;11.77;8.25;;;;;;;1.53;54.51;99231.44;6182235;23;20386;-65
2023/01/18 05:57:00;;;;;;;14.65;8.75;;;;;;;1.58;54.54;99226.72;6182189;23;20070;-64
2023/01/18 05:59:27;;;;;;;14.90;8.38;;;;;;;1.63;54.76;99229.09;6182371;23;20043;-66
2023/01/18 06:01:53;;;;;;;15.50;8.68;;;;;;;1.67;54.68;99235.91;6181962;23;20013;-65
2023/01/18 06:04:20;;;;;;;15.00;9.35;;;;;;;1.72;54.68;99235.63;6182038;23;20020;-65
2023/01/18 06:06:47;;;;;;;14.10;9.35;;;;;;;1.77;54.60;99241.50;6182037;23;20380;-64
2023/01/18 06:09:14;;;;;;;13.45;9.00;;;;;;;1.80;54.74;99243.97;6182176;23;20403;-65
2023/01/18 06:11:40;;;;;;;14.20;10.05;;;;;;;1.84;54.71;99245.47;6182142;23;20023;-65
2023/01/18 06:14:07;;;;;;;15.93;9.20;;;;;;;1.87;54.57;99253.22;6181579;23;20024;-65
2023/01/18 06:16:34;;;;;;;18.65;9.98;;;;;;;1.89;54.59;99261.94;6181660;23;20017;-66
2023/01/18 06:19:00;;;;;;;15.13;8.93;;;;;;;1.92;54.70;99267.88;6181668;23;20078;-64
2023/01/18 06:21:27;;;;;;;19.63;9.55;;;;;;;1.94;54.52;99265.13;6181820;23;20017;-65
2023/01/18 06:23:54;;;;;;;14.73;9.45;;;;;;;1.95;54.45;99266.00;6181851;23;20021;-65
2023/01/18 06:26:22;;;;;;;18.25;9.75;;;;;;;1.96;54.66;99273.00;6181746;23;20063;-65
2023/01/18 06:28:49;;;;;;;17.83;10.70;;;;;;;1.95;54.60;99277.44;6181732;23;20436;-66
2023/01/18 06:31:15;;;;;;;15.20;9.68;;;;;;;1.92;54.50;99272.31;6181827;23;20066;-65
2023/01/18 06:33:42;;;;;;;14.30;10.00;;;;;;;1.89;54.63;99273.38;6181763;23;20107;-65
2023/01/18 06:36:09;;;;;;;17.83;9.85;;;;;;;1.87;54.33;99269.09;6182121;23;20020;-65
2023/01/18 06:38:35;;;;;;;18.42;10.48;;;;;;;1.81;54.38;99275.63;6155575;23;20491;-65
2023/01/18 06:41:02;;;;;;;14.50;10.25;;;;;;;1.76;54.47;99276.84;6181805;23;20021;-65
2023/01/18 06:43:28;;;;;;;19.08;10.52;;;;;;;1.70;54.45;99287.81;6181390;23;20023;-65
2023/01/18 06:45:56;;;;;;;16.25;10.23;;;;;;;1.64;54.50;99285.53;6182151;22;20100;-66
2023/01/18 06:48:23;;;;;;;20.25;11.30;;;;;;;1.58;54.54;99284.94;6181672;23;20017;-66
2023/01/18 06:50:53;;;;;;;16.55;10.40;;;;;;;1.59;54.42;99288.44;6181590;23;20431;-65
2023/01/18 06:53:21;;;;;;;15.52;10.40;;;;;;;1.62;54.65;99290.06;6181313;23;20021;-65
2023/01/18 06:55:58;;;;;;;15.98;10.77;;;;;;;1.65;54.54;99295.16;6181909;23;20017;-65
2023/01/18 06:58:26;;;;;;;18.60;11.38;;;;;;;1.66;54.62;99296.88;6181765;23;20020;-65
2023/01/18 07:00:58;;;;;;;16.17;10.90;;;;;;;1.68;54.64;99298.47;6182253;23;20395;-68
2023/01/18 07:03:26;;;;;;;16.40;10.48;;;;;;;1.67;54.56;99312.66;6155462;22;20075;-71
2023/01/18 07:05:53;;;;;;;17.48;11.07;;;;;;;1.65;54.50;99303.09;6181808;22;20021;-71
2023/01/18 07:08:20;;;;;;;18.00;11.90;;;;;;;1.61;54.53;99307.72;6181827;23;20347;-71
2023/01/18 07:10:47;;;;;;;18.27;11.52;;;;;;;1.59;54.50;99315.75;6180072;23;20070;-70
2023/01/18 07:13:14;;;;;;;16.90;11.00;;;;;;;1.57;54.53;99314.13;6179359;23;20074;-70
2023/01/18 07:15:41;;;;;;;17.90;11.25;;;;;;;1.55;54.46;99326.59;6152808;22;20378;-70
2023/01/18 07:18:07;;;;;;;16.92;11.48;;;;;;;1.52;54.73;99327.63;6178969;23;20017;-70
2023/01/18 07:20:34;;;;;;;16.02;10.55;;;;;;;1.51;54.62;99331.22;6179611;23;20021;-71
2023/01/18 07:23:01;;;;;;;18.38;11.23;;;;;;;1.52;54.57;99335.56;6179216;23;20435;-69
2023/01/18 07:25:30;;;;;;;20.63;11.40;;;;;;;1.54;54.75;99336.34;6155066;22;20043;-71
2023/01/18 07:27:57;;;;;;;131.98;94.78;;;;;;;1.57;54.83;99345.88;6181645;23;20009;-73
2023/01/18 07:30:24;;;;;;;173.85;129.00;;;;;;;1.60;54.91;99335.13;6181789;23;20047;-72
2023/01/18 07:32:52;;;;;;;40.30;29.80;;;;;;;1.69;55.10;99342.53;6181592;23;20092;-72
2023/01/18 07:35:22;;;;;;;27.73;17.00;;;;;;;1.78;55.14;99349.91;6181783;23;20084;-72
2023/01/18 07:37:52;;;;;;;23.20;15.15;;;;;;;1.88;55.18;99342.28;6182020;23;20017;-72
2023/01/18 07:40:20;;;;;;;20.95;13.00;;;;;;;2.00;55.17;99343.34;6181810;22;20082;-72
2023/01/18 07:42:47;;;;;;;20.75;12.00;;;;;;;2.11;55.38;99357.63;6181761;23;20092;-72
2023/01/18 07:45:14;;;;;;;19.85;12.45;;;;;;;2.24;55.38;99357.78;6181757;23;20013;-72
2023/01/18 07:47:42;;;;;;;19.80;12.15;;;;;;;2.37;55.49;99358.75;6156000;23;20111;-71
2023/01/18 07:50:09;;;;;;;16.88;11.38;;;;;;;2.49;55.32;99367.72;6181218;22;20025;-69
2023/01/18 07:52:35;;;;;;;17.23;11.40;;;;;;;2.60;55.44;99354.66;6181517;23;20120;-71
2023/01/18 07:55:02;;;;;;;14.63;11.23;;;;;;;2.70;55.54;99365.53;6181196;23;20044;-69
2023/01/18 07:57:32;;;;;;;16.00;11.90;;;;;;;2.79;55.39;99367.63;6181589;22;20051;-70
2023/01/18 07:59:58;;;;;;;13.70;10.63;;;;;;;2.88;55.33;99369.69;6181508;23;20445;-70
2023/01/18 08:02:25;;;;;;;16.95;12.15;;;;;;;2.97;55.30;99371.75;6181338;23;20092;-70
2023/01/18 08:04:51;;;;;;;16.23;11.68;;;;;;;3.03;55.03;99374.06;6181618;23;20021;-70
2023/01/18 08:07:18;;;;;;;17.55;10.93;;;;;;;3.07;55.19;99370.25;6181579;23;20509;-70
2023/01/18 08:09:45;;;;;;;18.60;10.77;;;;;;;3.11;54.89;99369.13;6181682;23;20352;-69
2023/01/18 08:12:16;;;;;;;19.88;11.00;;;;;;;3.15;54.80;99381.22;6181647;23;20013;-70
2023/01/18 08:14:44;;;;;;;18.05;11.65;;;;;;;3.22;55.14;99386.13;6181695;23;20055;-69
2023/01/18 08:17:11;;;;;;;18.58;11.35;;;;;;;3.27;54.94;99384.03;6181614;23;20522;-70
2023/01/18 08:19:38;;;;;;;20.38;11.07;;;;;;;3.33;55.09;99391.59;6181497;23;20021;-70
2023/01/18 08:22:06;;;;;;;15.55;11.10;;;;;;;3.40;54.90;99392.91;6180148;23;20434;-67
2023/01/18 08:24:33;;;;;;;16.23;10.23;;;;;;;3.46;54.79;99389.88;6180789;22;20078;-67
2023/01/18 08:26:59;;;;;;;17.20;11.13;;;;;;;3.49;54.65;99393.16;6181075;23;20092;-68
2023/01/18 08:29:26;;;;;;;17.45;10.95;;;;;;;3.50;54.59;99402.84;6181181;23;20028;-67
2023/01/18 08:31:53;;;;;;;15.05;11.23;;;;;;;3.48;54.44;99399.44;6180472;23;20017;-71
2023/01/18 08:34:20;;;;;;;20.63;11.55;;;;;;;3.49;54.40;99402.94;6180375;22;20362;-67
2023/01/18 08:36:47;;;;;;;18.73;11.18;;;;;;;3.46;54.35;99405.78;6181524;23;20044;-68
2023/01/18 08:39:13;;;;;;;19.73;11.63;;;;;;;3.43;54.29;99405.97;6180862;23;20044;-67
2023/01/18 08:41:40;;;;;;;20.70;11.93;;;;;;;3.41;54.35;99410.53;6182400;23;20024;-66
2023/01/18 08:44:07;;;;;;;17.85;11.73;;;;;;;3.42;54.52;99407.78;6159275;23;20017;-67
2023/01/18 08:46:35;;;;;;;20.42;10.98;;;;;;;3.43;54.37;99412.16;6153252;23;20017;-67
2023/01/18 08:49:04;;;;;;;16.60;11.40;;;;;;;3.47;54.31;99415.44;6178962;23;20023;-68
2023/01/18 08:51:31;;;;;;;16.10;11.38;;;;;;;3.50;54.43;99421.41;6179086;23;20013;-67
2023/01/18 08:53:58;;;;;;;16.00;11.15;;;;;;;3.54;54.60;99419.41;6179245;23;20068;-67
2023/01/18 08:56:25;;;;;;;15.45;11.65;;;;;;;3.61;54.54;99419.88;6180912;23;20435;-67
2023/01/18 08:58:52;;;;;;;15.63;11.50;;;;;;;3.66;54.78;99426.56;6180577;23;20017;-66
2023/01/18 09:01:21;;;;;;;18.70;12.13;;;;;;;3.73;55.01;99430.56;6180918;23;20048;-67
2023/01/18 09:03:49;;;;;;;15.80;11.60;;;;;;;3.82;54.88;99437.06;6180205;23;20013;-67
2023/01/18 09:06:20;;;;;;;16.20;11.93;;;;;;;3.90;54.80;99440.06;6179560;22;20062;-68
2023/01/18 09:08:47;;;;;;;17.05;10.73;;;;;;;3.99;54.90;99443.91;6180611;23;20092;-67
2023/01/18 09:11:14;;;;;;;16.80;11.05;;;;;;;4.06;54.99;99434.59;6180367;23;20088;-67
2023/01/18 09:13:41;;;;;;;14.02;10.95;;;;;;;4.14;54.98;99433.13;6181770;23;20052;-68
2023/01/18 09:16:25;;;;;;;17.25;11.20;;;;;;;4.25;55.18;99437.72;6181619;22;20014;-67
2023/01/18 09:18:54;;;;;;;17.95;11.55;;;;;;;4.38;55.04;99443.03;6181939;23;20021;-67
2023/01/18 09:21:21;;;;;;;19.50;10.60;;;;;;;4.52;55.21;99442.13;6155689;23;20043;-66
2023/01/18 09:23:48;;;;;;;14.73;10.63;;;;;;;4.67;55.20;99454.38;6181608;23;20028;-67
2023/01/18 09:26:16;;;;;;;18.05;11.27;;;;;;;4.81;55.44;99461.41;6181941;23;20017;-66
2023/01/18 09:28:46;;;;;;;15.77;11.23;;;;;;;4.97;55.32;99460.22;6181860;23;20051;-67
2023/01/18 09:31:12;;;;;;;15.02;10.20;;;;;;;5.15;55.31;99468.72;6182960;22;20336;-65
2023/01/18 09:33:41;;;;;;;16.13;11.23;;;;;;;5.35;55.43;99465.53;6181761;23;20445;-66
2023/01/18 09:36:20;;;;;;;17.10;10.00;;;;;;;5.54;55.34;99480.16;6182380;23;20013;-66
2023/01/18 09:38:46;;;;;;;12.65;9.68;;;;;;;5.69;55.30;99476.38;6181687;23;20018;-66
2023/01/18 09:41:35;;;;;;;13.98;9.82;;;;;;;5.83;55.04;99475.38;6155476;22;20020;-66
2023/01/18 09:44:15;;;;;;;13.15;9.68;;;;;;;5.94;54.78;99486.13;6181962;23;20017;-66
2023/01/18 09:46:43;;;;;;;16.10;9.98;;;;;;;6.02;54.80;99489.97;6181877;23;20100;-65
2023/01/18 09:49:18;;;;;;;15.73;10.45;;;;;;;6.10;54.60;99489.41;6182182;22;20024;-66
2023/01/18 09:51:55;;;;;;;14.02;10.05;;;;;;;6.16;54.56;99488.94;6181724;22;20074;-66
2023/01/18 09:54:39;;;;;;;14.75;10.32;;;;;;;6.22;54.45;99498.28;6183002;23;20021;-67
2023/01/18 09:57:43;;;;;;;15.85;10.30;;;;;;;6.28;54.38;99497.84;6181890;23;20096;-66
2023/01/18 10:00:23;;;;;;;14.50;10.15;;;;;;;6.33;54.34;99495.69;6181767;23;20018;-67
2023/01/18 10:02:55;;;;;;;14.40;10.85;;;;;;;6.34;54.20;99497.38;6155377;23;20070;-66
2023/01/18 10:05:27;;;;;;;14.88;10.05;;;;;;;6.33;54.27;99499.19;6182343;23;20044;-66
2023/01/18 10:08:03;;;;;;;13.80;10.02;;;;;;;6.38;54.24;99501.50;6181846;23;20444;-67
2023/01/18 10:10:39;;;;;;;13.98;10.25;;;;;;;6.43;54.33;99506.50;6182153;22;20017;-66
2023/01/18 10:13:22;;;;;;;13.68;10.45;;;;;;;6.48;54.39;99501.66;6181771;23;20016;-67
2023/01/18 10:15:49;;;;;;;14.38;10.63;;;;;;;6.54;54.30;99514.53;6181857;23;20033;-67
2023/01/18 10:18:17;;;;;;;14.57;10.05;;;;;;;6.60;54.30;99511.41;6181951;22;20321;-65
2023/01/18 10:20:50;;;;;;;13.38;9.95;;;;;;;6.67;54.33;99515.31;6181492;23;20096;-66
2023/01/18 10:23:33;;;;;;;19.33;11.73;;;;;;;6.72;54.19;99518.50;6181607;23;20013;-65
2023/01/18 10:26:25;;;;;;;16.83;10.88;;;;;;;6.78;54.10;99519.84;6155854;23;20021;-66
2023/01/18 10:29:14;;;;;;;13.98;10.68;;;;;;;6.84;54.15;99522.91;6181764;23;20096;-65
2023/01/18 10:32:03;;;;;;;15.95;10.48;;;;;;;6.93;54.20;99513.34;6181424;23;20013;-64
2023/01/18 10:34:32;;;;;;;12.60;9.65;;;;;;;7.03;54.21;99516.16;6181632;23;20063;-67
2023/01/18 10:37:39;;;;;;;15.35;9.73;;;;;;;7.12;54.27;99505.59;6181569;22;20459;-65
2023/01/18 10:40:09;;;;;;;;;;;;;;;7.22;54.29;99505.72;6181584;23;20448;-66
2023/01/18 10:42:42;;;;;;;15.45;9.10;;;;;;;7.37;54.17;99514.34;6181307;23;19924;-70
2023/01/18 10:45:20;;;;;;;12.15;8.82;;;;;;;7.47;54.42;99516.22;6181629;23;20436;-66
2023/01/18 10:47:52;;;;;;;13.38;9.73;;;;;;;7.61;54.20;99515.94;6181244;22;20020;-66
2023/01/18 10:50:35;;;;;;;10.77;8.88;;;;;;;7.75;54.08;99517.53;6181736;23;20028;-67
2023/01/18 10:53:20;;;;;;;10.38;9.25;;;;;;;7.89;54.18;99519.91;6181338;23;20017;-67
2023/01/18 10:55:58;;;;;;;11.40;8.82;;;;;;;8.01;54.15;99520.75;6182021;22;20022;-67
2023/01/18 10:58:42;;;;;;;14.93;9.23;;;;;;;8.11;53.92;99511.00;6181954;23;20018;-66
2023/01/18 11:01:19;;;;;;;12.55;9.38;;;;;;;8.19;53.72;99513.06;6155063;22;20325;-67
2023/01/18 11:03:50;;;;;;;11.23;8.85;;;;;;;8.23;53.63;99510.03;6181662;23;20017;-66
2023/01/18 11:06:19;;;;;;;13.82;8.93;;;;;;;8.31;53.52;99519.22;6181814;23;20017;-68
2023/01/18 11:08:47;;;;;;;13.27;9.18;;;;;;;8.39;53.59;99519.47;6181713;23;20017;-67
2023/01/18 11:14:28;;;;;;;11.48;8.23;;;;;;;8.60;53.53;99521.22;6181634;23;20456;-67
2023/01/18 11:17:10;;;;;;;11.52;8.88;;;;;;;8.69;53.30;99518.72;6181997;23;20060;-67
2023/01/18 11:19:38;;;;;;;13.35;8.38;;;;;;;8.74;53.21;99519.19;6181601;23;20013;-67
2023/01/18 11:22:14;;;;;;;10.85;8.82;;;;;;;8.82;53.36;99522.91;6181239;23;20041;-67
2023/01/18 11:24:41;;;;;;;10.48;8.75;;;;;;;8.91;53.24;99521.28;6180603;22;20452;-66
2023/01/18 11:27:17;;;;;;;10.40;7.70;;;;;;;9.00;52.97;99531.25;6181285;23;20395;-66
2023/01/18 11:29:45;;;;;;;11.48;8.43;;;;;;;9.09;53.19;99525.09;6181070;22;20021;-67
2023/01/18 11:32:25;;;;;;;10.75;8.52;;;;;;;9.18;53.05;99523.47;6181091;23;20043;-68
2023/01/18 11:34:54;;;;;;;9.43;8.15;;;;;;;9.27;52.89;99525.34;6181092;23;20017;-68
2023/01/18 11:37:33;;;;;;;12.57;8.40;;;;;;;9.36;52.93;99516.50;6181365;23;20379;-68
2023/01/18 11:40:35;;;;;;;10.40;7.88;;;;;;;9.39;52.39;99516.22;6181260;23;20417;-67
2023/01/18 11:43:04;;;;;;;13.93;8.20;;;;;;;9.44;52.52;99508.63;6182925;23;20017;-67
2023/01/18 11:45:39;;;;;;;10.88;7.57;;;;;;;9.44;52.43;99497.06;6181959;23;20021;-68
2023/01/18 11:48:28;;;;;;;10.70;7.78;;;;;;;9.45;52.10;99499.63;6181567;23;20058;-67
2023/01/18 11:51:07;;;;;;;13.05;8.40;;;;;;;9.48;52.27;99509.22;6154706;23;20024;-68
2023/01/18 11:54:02;;;;;;;12.40;8.15;;;;;;;9.48;52.22;99509.22;6181084;23;20041;-67
2023/01/18 11:56:39;;;;;;;9.85;7.30;;;;;;;9.52;52.20;99514.16;6181900;23;20347;-67
2023/01/18 11:59:17;;;;;;;9.80;7.45;;;;;;;9.54;51.74;99509.53;6155166;23;20064;-67
2023/01/18 12:02:02;;;;;;;12.73;8.73;;;;;;;9.59;52.12;99509.13;6154354;23;20475;-67
2023/01/18 12:04:31;;;;;;;11.20;8.38;;;;;;;9.65;51.81;99508.59;6181531;23;20365;-67
2023/01/18 12:07:23;;;;;;;10.77;6.95;;;;;;;9.67;51.94;99509.31;6181620;23;20024;-67
2023/01/18 12:09:56;;;;;;;9.32;6.78;;;;;;;9.68;51.84;99521.75;6181384;23;20025;-67
2023/01/18 12:12:34;;;;;;;10.75;7.35;;;;;;;9.72;51.74;99525.84;6181049;23;20014;-67
2023/01/18 12:15:21;;;;;;;11.32;8.25;;;;;;;9.76;51.58;99527.28;6181540;23;20021;-67
2023/01/18 12:18:06;;;;;;;11.45;7.35;;;;;;;9.80;51.59;99535.91;6181208;23;20096;-67
2023/01/18 12:21:00;;;;;;;9.38;7.22;;;;;;;9.85;51.83;99533.66;6181257;23;20067;-67
2023/01/18 12:23:48;;;;;;;11.65;7.68;;;;;;;9.89;51.40;99535.06;6181318;23;20043;-67
2023/01/18 12:26:34;;;;;;;9.05;6.75;;;;;;;9.95;51.58;99539.03;6181635;23;20021;-67
2023/01/18 12:29:20;;;;;;;;;;;;;;;10.02;51.75;99532.16;6181971;23;20092;-67